sensor_id;sensor_type;location;lat;lon;timestamp;temperature;humidity
52731;DHT22;38624;53.242;6.974;2022-08-19T00:01:48;16.50;99.90
52731;DHT22;38624;53.242;6.974;2022-08-19T00:04:17;16.60;99.90
52731;DHT22;38624;53.242;6.974;2022-08-19T00:06:44;16.50;99.90
52731;DHT22;38624;53.242;6.974;2022-08-19T00:09:12;16.50;99.90
52731;DHT22;38624;53.242;6.974;2022-08-19T00:11:38;16.50;99.90
52731;DHT22;38624;53.242;6.974;2022-08-19T00:14:06;16.50;99.90
52731;DHT22;38624;53.242;6.974;2022-08-19T00:16:35;16.40;99.90
52731;DHT22;38624;53.242;6.974;2022-08-19T00:19:01;16.40;99.90
52731;DHT22;38624;53.242;6.974;2022-08-19T00:21:27;16.40;99.90
52731;DHT22;38624;53.242;6.974;2022-08-19T00:23:54;16.40;99.90
52731;DHT22;38624;53.242;6.974;2022-08-19T00:26:20;16.40;99.90
52731;DHT22;38624;53.242;6.974;2022-08-19T00:28:46;16.40;99.90
52731;DHT22;38624;53.242;6.974;2022-08-19T00:31:12;16.30;99.90
52731;DHT22;38624;53.242;6.974;2022-08-19T00:33:38;16.30;99.90
52731;DHT22;38624;53.242;6.974;2022-08-19T00:36:07;16.30;99.90
52731;DHT22;38624;53.242;6.974;2022-08-19T00:38:36;16.20;99.90
52731;DHT22;38624;53.242;6.974;2022-08-19T00:41:01;16.20;99.90
52731;DHT22;38624;53.242;6.974;2022-08-19T00:43:27;16.20;99.90
52731;DHT22;38624;53.242;6.974;2022-08-19T00:45:53;16.20;99.90
52731;DHT22;38624;53.242;6.974;2022-08-19T00:48:20;16.20;99.90
52731;DHT22;38624;53.242;6.974;2022-08-19T00:50:48;16.10;99.90
52731;DHT22;38624;53.242;6.974;2022-08-19T00:53:16;16.10;99.90
52731;DHT22;38624;53.242;6.974;2022-08-19T00:55:49;16.10;99.90
52731;DHT22;38624;53.242;6.974;2022-08-19T00:58:19;16.10;99.90
52731;DHT22;38624;53.242;6.974;2022-08-19T01:00:46;16.10;99.90
52731;DHT22;38624;53.242;6.974;2022-08-19T01:03:15;16.10;99.90
52731;DHT22;38624;53.242;6.974;2022-08-19T01:05:43;16.10;99.90
52731;DHT22;38624;53.242;6.974;2022-08-19T01:08:10;16.10;99.90
52731;DHT22;38624;53.242;6.974;2022-08-19T01:10:58;16.10;99.90
52731;DHT22;38624;53.242;6.974;2022-08-19T01:13:27;16.00;99.90
52731;DHT22;38624;53.242;6.974;2022-08-19T01:15:57;16.00;99.90
52731;DHT22;38624;53.242;6.974;2022-08-19T01:18:25;16.00;99.90
52731;DHT22;38624;53.242;6.974;2022-08-19T01:20:54;16.00;99.90
52731;DHT22;38624;53.242;6.974;2022-08-19T01:23:21;16.00;99.90
52731;DHT22;38624;53.242;6.974;2022-08-19T01:25:50;16.00;99.90
52731;DHT22;38624;53.242;6.974;2022-08-19T01:28:26;15.90;99.90
52731;DHT22;38624;53.242;6.974;2022-08-19T01:30:53;15.90;99.90
52731;DHT22;38624;53.242;6.974;2022-08-19T01:33:20;15.90;99.90
52731;DHT22;38624;53.242;6.974;2022-08-19T01:35:46;15.90;99.90
52731;DHT22;38624;53.242;6.974;2022-08-19T01:38:26;15.90;99.90
52731;DHT22;38624;53.242;6.974;2022-08-19T01:40:52;15.90;99.90
52731;DHT22;38624;53.242;6.974;2022-08-19T01:43:18;15.80;99.90
52731;DHT22;38624;53.242;6.974;2022-08-19T01:45:45;15.80;99.90
52731;DHT22;38624;53.242;6.974;2022-08-19T01:48:11;15.80;99.90
52731;DHT22;38624;53.242;6.974;2022-08-19T01:50:37;15.80;99.90
52731;DHT22;38624;53.242;6.974;2022-08-19T01:53:05;15.70;99.90
52731;DHT22;38624;53.242;6.974;2022-08-19T01:55:33;15.70;99.90
52731;DHT22;38624;53.242;6.974;2022-08-19T01:58:00;15.70;99.90
52731;DHT22;38624;53.242;6.974;2022-08-19T02:00:28;15.70;99.90
52731;DHT22;38624;53.242;6.974;2022-08-19T02:02:54;15.70;99.90
52731;DHT22;38624;53.242;6.974;2022-08-19T02:05:20;15.70;99.90
52731;DHT22;38624;53.242;6.974;2022-08-19T02:07:47;15.70;99.90
52731;DHT22;38624;53.242;6.974;2022-08-19T02:10:17;15.60;99.90
52731;DHT22;38624;53.242;6.974;2022-08-19T02:12:43;15.60;99.90
52731;DHT22;38624;53.242;6.974;2022-08-19T02:15:09;15.60;99.90
52731;DHT22;38624;53.242;6.974;2022-08-19T02:17:35;15.50;99.90
52731;DHT22;38624;53.242;6.974;2022-08-19T02:20:01;15.60;99.90
52731;DHT22;38624;53.242;6.974;2022-08-19T02:22:27;15.50;99.90
52731;DHT22;38624;53.242;6.974;2022-08-19T02:24:54;15.50;99.90
52731;DHT22;38624;53.242;6.974;2022-08-19T02:27:20;15.50;99.90
52731;DHT22;38624;53.242;6.974;2022-08-19T02:29:47;15.40;99.90
52731;DHT22;38624;53.242;6.974;2022-08-19T02:32:13;15.40;99.90
52731;DHT22;38624;53.242;6.974;2022-08-19T02:34:39;15.40;99.90
52731;DHT22;38624;53.242;6.974;2022-08-19T02:37:05;15.30;99.90
52731;DHT22;38624;53.242;6.974;2022-08-19T02:39:31;15.30;99.90
52731;DHT22;38624;53.242;6.974;2022-08-19T02:41:57;15.30;99.90
52731;DHT22;38624;53.242;6.974;2022-08-19T02:44:24;15.30;99.90
52731;DHT22;38624;53.242;6.974;2022-08-19T02:46:50;15.30;99.90
52731;DHT22;38624;53.242;6.974;2022-08-19T02:49:15;15.20;99.90
52731;DHT22;38624;53.242;6.974;2022-08-19T02:51:43;15.20;99.90
52731;DHT22;38624;53.242;6.974;2022-08-19T02:54:11;15.10;99.90
52731;DHT22;38624;53.242;6.974;2022-08-19T02:56:39;15.10;99.90
52731;DHT22;38624;53.242;6.974;2022-08-19T02:59:06;15.10;99.90
52731;DHT22;38624;53.242;6.974;2022-08-19T03:01:35;15.10;99.90
52731;DHT22;38624;53.242;6.974;2022-08-19T03:04:04;15.10;99.90
52731;DHT22;38624;53.242;6.974;2022-08-19T03:06:30;15.10;99.90
52731;DHT22;38624;53.242;6.974;2022-08-19T03:08:56;15.10;99.90
52731;DHT22;38624;53.242;6.974;2022-08-19T03:11:27;15.10;99.90
52731;DHT22;38624;53.242;6.974;2022-08-19T03:13:53;15.10;99.90
52731;DHT22;38624;53.242;6.974;2022-08-19T03:16:21;15.10;99.90
52731;DHT22;38624;53.242;6.974;2022-08-19T03:18:47;15.10;99.90
52731;DHT22;38624;53.242;6.974;2022-08-19T03:21:18;15.10;99.90
52731;DHT22;38624;53.242;6.974;2022-08-19T03:23:44;15.10;99.90
52731;DHT22;38624;53.242;6.974;2022-08-19T03:26:10;15.00;99.90
52731;DHT22;38624;53.242;6.974;2022-08-19T03:28:36;15.10;99.90
52731;DHT22;38624;53.242;6.974;2022-08-19T03:31:07;15.10;99.90
52731;DHT22;38624;53.242;6.974;2022-08-19T03:33:34;15.10;99.90
52731;DHT22;38624;53.242;6.974;2022-08-19T03:36:11;14.80;99.90
52731;DHT22;38624;53.242;6.974;2022-08-19T03:38:42;15.10;99.90
52731;DHT22;38624;53.242;6.974;2022-08-19T03:41:13;15.10;99.90
52731;DHT22;38624;53.242;6.974;2022-08-19T03:43:40;15.10;99.90
52731;DHT22;38624;53.242;6.974;2022-08-19T03:46:12;15.10;99.90
52731;DHT22;38624;53.242;6.974;2022-08-19T03:48:39;15.10;99.90
52731;DHT22;38624;53.242;6.974;2022-08-19T03:51:07;15.10;99.90
52731;DHT22;38624;53.242;6.974;2022-08-19T03:53:34;15.10;99.90
52731;DHT22;38624;53.242;6.974;2022-08-19T03:56:00;15.00;99.90
52731;DHT22;38624;53.242;6.974;2022-08-19T03:58:29;15.00;99.90
52731;DHT22;38624;53.242;6.974;2022-08-19T04:00:58;15.00;99.90
52731;DHT22;38624;53.242;6.974;2022-08-19T04:03:25;15.00;99.90
52731;DHT22;38624;53.242;6.974;2022-08-19T04:05:52;15.00;99.90
52731;DHT22;38624;53.242;6.974;2022-08-19T04:08:19;15.00;99.90
52731;DHT22;38624;53.242;6.974;2022-08-19T04:10:48;15.00;99.90
52731;DHT22;38624;53.242;6.974;2022-08-19T04:13:16;15.00;99.90
52731;DHT22;38624;53.242;6.974;2022-08-19T04:15:44;15.00;99.90
52731;DHT22;38624;53.242;6.974;2022-08-19T04:18:10;15.00;99.90
52731;DHT22;38624;53.242;6.974;2022-08-19T04:20:46;15.00;99.90
52731;DHT22;38624;53.242;6.974;2022-08-19T04:23:14;15.00;99.90
52731;DHT22;38624;53.242;6.974;2022-08-19T04:25:41;15.00;99.90
52731;DHT22;38624;53.242;6.974;2022-08-19T04:28:09;15.00;99.90
52731;DHT22;38624;53.242;6.974;2022-08-19T04:30:47;15.00;99.90
52731;DHT22;38624;53.242;6.974;2022-08-19T04:33:15;14.90;99.90
52731;DHT22;38624;53.242;6.974;2022-08-19T04:35:44;15.00;99.90
52731;DHT22;38624;53.242;6.974;2022-08-19T04:38:11;15.10;99.90
52731;DHT22;38624;53.242;6.974;2022-08-19T04:40:41;15.00;99.90
52731;DHT22;38624;53.242;6.974;2022-08-19T04:43:27;15.00;99.90
52731;DHT22;38624;53.242;6.974;2022-08-19T04:45:52;15.00;99.90
52731;DHT22;38624;53.242;6.974;2022-08-19T04:48:18;15.10;99.90
52731;DHT22;38624;53.242;6.974;2022-08-19T04:50:52;15.00;99.90
52731;DHT22;38624;53.242;6.974;2022-08-19T04:53:27;15.00;99.90
52731;DHT22;38624;53.242;6.974;2022-08-19T04:55:58;15.00;99.90
52731;DHT22;38624;53.242;6.974;2022-08-19T04:58:26;15.00;99.90
52731;DHT22;38624;53.242;6.974;2022-08-19T05:00:52;15.00;99.90
52731;DHT22;38624;53.242;6.974;2022-08-19T05:03:18;15.00;99.90
52731;DHT22;38624;53.242;6.974;2022-08-19T05:05:45;15.00;99.90
52731;DHT22;38624;53.242;6.974;2022-08-19T05:08:15;15.10;99.90
52731;DHT22;38624;53.242;6.974;2022-08-19T05:10:46;15.10;99.90
52731;DHT22;38624;53.242;6.974;2022-08-19T05:13:12;15.10;99.90
52731;DHT22;38624;53.242;6.974;2022-08-19T05:15:38;15.10;99.90
52731;DHT22;38624;53.242;6.974;2022-08-19T05:18:04;15.10;99.90
52731;DHT22;38624;53.242;6.974;2022-08-19T05:20:48;15.20;99.90
52731;DHT22;38624;53.242;6.974;2022-08-19T05:23:33;15.20;99.90
52731;DHT22;38624;53.242;6.974;2022-08-19T05:25:58;15.30;99.90
52731;DHT22;38624;53.242;6.974;2022-08-19T05:28:24;15.30;99.90
52731;DHT22;38624;53.242;6.974;2022-08-19T05:30:50;15.40;99.90
52731;DHT22;38624;53.242;6.974;2022-08-19T05:33:17;15.40;99.90
52731;DHT22;38624;53.242;6.974;2022-08-19T05:35:43;15.50;99.90
52731;DHT22;38624;53.242;6.974;2022-08-19T05:38:10;15.50;99.90
52731;DHT22;38624;53.242;6.974;2022-08-19T05:40:39;15.50;99.90
52731;DHT22;38624;53.242;6.974;2022-08-19T05:43:07;15.60;99.90
52731;DHT22;38624;53.242;6.974;2022-08-19T05:45:38;15.60;99.90
52731;DHT22;38624;53.242;6.974;2022-08-19T05:48:04;15.60;99.90
52731;DHT22;38624;53.242;6.974;2022-08-19T05:50:30;15.60;99.90
52731;DHT22;38624;53.242;6.974;2022-08-19T05:52:56;15.70;99.90
52731;DHT22;38624;53.242;6.974;2022-08-19T05:55:21;15.80;99.90
52731;DHT22;38624;53.242;6.974;2022-08-19T05:57:47;16.00;99.90
52731;DHT22;38624;53.242;6.974;2022-08-19T06:00:14;16.00;99.90
52731;DHT22;38624;53.242;6.974;2022-08-19T06:02:40;16.10;99.90
52731;DHT22;38624;53.242;6.974;2022-08-19T06:05:07;16.20;99.90
52731;DHT22;38624;53.242;6.974;2022-08-19T06:07:39;16.20;99.90
52731;DHT22;38624;53.242;6.974;2022-08-19T06:10:07;16.30;99.90
52731;DHT22;38624;53.242;6.974;2022-08-19T06:12:34;16.40;99.90
52731;DHT22;38624;53.242;6.974;2022-08-19T06:15:06;16.40;99.90
52731;DHT22;38624;53.242;6.974;2022-08-19T06:17:32;16.50;99.90
52731;DHT22;38624;53.242;6.974;2022-08-19T06:20:00;16.60;99.90
52731;DHT22;38624;53.242;6.974;2022-08-19T06:22:26;16.70;99.90
52731;DHT22;38624;53.242;6.974;2022-08-19T06:24:52;16.80;99.90
52731;DHT22;38624;53.242;6.974;2022-08-19T06:27:19;16.80;99.90
52731;DHT22;38624;53.242;6.974;2022-08-19T06:29:45;16.90;99.90
52731;DHT22;38624;53.242;6.974;2022-08-19T06:32:15;17.00;99.90
52731;DHT22;38624;53.242;6.974;2022-08-19T06:34:42;17.10;99.90
52731;DHT22;38624;53.242;6.974;2022-08-19T06:37:08;17.10;99.90
52731;DHT22;38624;53.242;6.974;2022-08-19T06:39:36;17.20;99.90
52731;DHT22;38624;53.242;6.974;2022-08-19T06:42:05;17.30;99.90
52731;DHT22;38624;53.242;6.974;2022-08-19T06:44:34;17.40;99.90
52731;DHT22;38624;53.242;6.974;2022-08-19T06:47:03;17.50;99.90
52731;DHT22;38624;53.242;6.974;2022-08-19T06:49:30;17.60;99.90
52731;DHT22;38624;53.242;6.974;2022-08-19T06:51:59;17.70;99.90
52731;DHT22;38624;53.242;6.974;2022-08-19T06:54:26;17.80;99.90
52731;DHT22;38624;53.242;6.974;2022-08-19T06:56:53;17.90;99.90
52731;DHT22;38624;53.242;6.974;2022-08-19T06:59:21;18.00;99.90
52731;DHT22;38624;53.242;6.974;2022-08-19T07:01:53;18.10;99.90
52731;DHT22;38624;53.242;6.974;2022-08-19T07:04:21;18.20;99.90
52731;DHT22;38624;53.242;6.974;2022-08-19T07:06:48;18.30;99.90
52731;DHT22;38624;53.242;6.974;2022-08-19T07:09:16;18.40;99.90
52731;DHT22;38624;53.242;6.974;2022-08-19T07:11:45;18.50;99.90
52731;DHT22;38624;53.242;6.974;2022-08-19T07:14:11;18.70;99.90
52731;DHT22;38624;53.242;6.974;2022-08-19T07:16:37;18.80;99.90
52731;DHT22;38624;53.242;6.974;2022-08-19T07:19:03;18.90;99.90
52731;DHT22;38624;53.242;6.974;2022-08-19T07:21:29;19.00;99.90
52731;DHT22;38624;53.242;6.974;2022-08-19T07:23:56;19.20;99.90
52731;DHT22;38624;53.242;6.974;2022-08-19T07:26:30;19.30;99.90
52731;DHT22;38624;53.242;6.974;2022-08-19T07:28:57;19.40;99.90
52731;DHT22;38624;53.242;6.974;2022-08-19T07:31:26;19.50;99.90
52731;DHT22;38624;53.242;6.974;2022-08-19T07:33:54;19.60;99.90
52731;DHT22;38624;53.242;6.974;2022-08-19T07:36:23;19.80;99.90
52731;DHT22;38624;53.242;6.974;2022-08-19T07:38:51;19.90;99.90
52731;DHT22;38624;53.242;6.974;2022-08-19T07:41:20;20.00;99.90
52731;DHT22;38624;53.242;6.974;2022-08-19T07:43:47;20.10;99.90
52731;DHT22;38624;53.242;6.974;2022-08-19T07:46:13;20.20;99.90
52731;DHT22;38624;53.242;6.974;2022-08-19T07:48:41;20.30;99.90
52731;DHT22;38624;53.242;6.974;2022-08-19T07:51:08;20.40;99.90
52731;DHT22;38624;53.242;6.974;2022-08-19T07:53:36;20.50;99.90
52731;DHT22;38624;53.242;6.974;2022-08-19T07:56:03;20.60;99.90
52731;DHT22;38624;53.242;6.974;2022-08-19T07:58:35;20.70;99.90
52731;DHT22;38624;53.242;6.974;2022-08-19T08:01:02;20.80;99.90
52731;DHT22;38624;53.242;6.974;2022-08-19T08:03:29;20.90;99.90
52731;DHT22;38624;53.242;6.974;2022-08-19T08:06:14;20.90;99.90
52731;DHT22;38624;53.242;6.974;2022-08-19T08:08:59;21.00;99.90
52731;DHT22;38624;53.242;6.974;2022-08-19T08:11:39;21.20;99.90
52731;DHT22;38624;53.242;6.974;2022-08-19T08:14:05;21.30;99.90
52731;DHT22;38624;53.242;6.974;2022-08-19T08:16:36;21.40;99.90
52731;DHT22;38624;53.242;6.974;2022-08-19T08:19:06;21.50;99.90
52731;DHT22;38624;53.242;6.974;2022-08-19T08:21:33;21.60;99.90
52731;DHT22;38624;53.242;6.974;2022-08-19T08:23:59;21.70;99.90
52731;DHT22;38624;53.242;6.974;2022-08-19T08:26:25;21.80;99.90
52731;DHT22;38624;53.242;6.974;2022-08-19T08:28:52;21.80;99.90
52731;DHT22;38624;53.242;6.974;2022-08-19T08:31:17;21.90;99.90
52731;DHT22;38624;53.242;6.974;2022-08-19T08:33:47;22.00;99.90
52731;DHT22;38624;53.242;6.974;2022-08-19T08:36:12;22.10;99.90
52731;DHT22;38624;53.242;6.974;2022-08-19T08:38:40;22.10;99.90
52731;DHT22;38624;53.242;6.974;2022-08-19T08:43:46;22.30;99.90
52731;DHT22;38624;53.242;6.974;2022-08-19T08:46:17;22.40;99.90
52731;DHT22;38624;53.242;6.974;2022-08-19T08:48:49;22.50;99.90
52731;DHT22;38624;53.242;6.974;2022-08-19T08:54:02;22.60;99.90
52731;DHT22;38624;53.242;6.974;2022-08-19T08:56:29;22.70;99.90
52731;DHT22;38624;53.242;6.974;2022-08-19T08:58:59;22.80;99.90
52731;DHT22;38624;53.242;6.974;2022-08-19T09:01:26;22.90;99.90
52731;DHT22;38624;53.242;6.974;2022-08-19T09:03:53;22.90;99.90
52731;DHT22;38624;53.242;6.974;2022-08-19T09:06:35;23.00;99.90
52731;DHT22;38624;53.242;6.974;2022-08-19T09:09:09;23.00;99.90
52731;DHT22;38624;53.242;6.974;2022-08-19T09:14:52;23.20;99.90
52731;DHT22;38624;53.242;6.974;2022-08-19T09:17:23;23.20;99.90
52731;DHT22;38624;53.242;6.974;2022-08-19T09:22:39;23.40;99.90
52731;DHT22;38624;53.242;6.974;2022-08-19T09:25:08;23.50;99.90
52731;DHT22;38624;53.242;6.974;2022-08-19T09:27:35;23.60;99.90
52731;DHT22;38624;53.242;6.974;2022-08-19T09:30:04;23.70;99.90
52731;DHT22;38624;53.242;6.974;2022-08-19T09:32:30;23.80;99.90
52731;DHT22;38624;53.242;6.974;2022-08-19T09:34:56;23.80;99.90
52731;DHT22;38624;53.242;6.974;2022-08-19T09:37:24;24.00;99.90
52731;DHT22;38624;53.242;6.974;2022-08-19T09:39:50;24.00;99.90
52731;DHT22;38624;53.242;6.974;2022-08-19T09:42:16;24.10;99.90
52731;DHT22;38624;53.242;6.974;2022-08-19T09:44:43;24.20;99.90
52731;DHT22;38624;53.242;6.974;2022-08-19T09:47:10;24.30;99.90
52731;DHT22;38624;53.242;6.974;2022-08-19T09:49:37;24.40;99.90
52731;DHT22;38624;53.242;6.974;2022-08-19T09:52:09;24.50;99.90
52731;DHT22;38624;53.242;6.974;2022-08-19T09:54:36;24.60;99.90
52731;DHT22;38624;53.242;6.974;2022-08-19T09:57:02;24.70;99.90
52731;DHT22;38624;53.242;6.974;2022-08-19T09:59:28;24.70;99.90
52731;DHT22;38624;53.242;6.974;2022-08-19T10:01:54;24.80;99.90
52731;DHT22;38624;53.242;6.974;2022-08-19T10:04:20;24.80;99.90
52731;DHT22;38624;53.242;6.974;2022-08-19T10:07:09;24.80;99.90
52731;DHT22;38624;53.242;6.974;2022-08-19T10:09:34;24.80;99.90
52731;DHT22;38624;53.242;6.974;2022-08-19T10:12:01;24.90;99.90
52731;DHT22;38624;53.242;6.974;2022-08-19T10:14:28;24.90;99.90
52731;DHT22;38624;53.242;6.974;2022-08-19T10:16:53;24.90;99.90
52731;DHT22;38624;53.242;6.974;2022-08-19T10:19:19;24.90;99.90
52731;DHT22;38624;53.242;6.974;2022-08-19T10:21:48;24.90;99.90
52731;DHT22;38624;53.242;6.974;2022-08-19T10:24:14;25.00;99.90
52731;DHT22;38624;53.242;6.974;2022-08-19T10:26:40;25.00;99.90
52731;DHT22;38624;53.242;6.974;2022-08-19T10:29:12;25.10;99.90
52731;DHT22;38624;53.242;6.974;2022-08-19T10:31:41;25.20;99.90
52731;DHT22;38624;53.242;6.974;2022-08-19T10:34:07;25.20;99.90
52731;DHT22;38624;53.242;6.974;2022-08-19T10:36:36;25.20;99.90
52731;DHT22;38624;53.242;6.974;2022-08-19T10:39:08;25.20;99.90
52731;DHT22;38624;53.242;6.974;2022-08-19T10:41:36;25.40;99.90
52731;DHT22;38624;53.242;6.974;2022-08-19T10:44:07;25.50;99.90
52731;DHT22;38624;53.242;6.974;2022-08-19T10:46:36;25.60;99.90
52731;DHT22;38624;53.242;6.974;2022-08-19T10:49:04;25.60;99.90
52731;DHT22;38624;53.242;6.974;2022-08-19T10:51:30;25.70;99.90
52731;DHT22;38624;53.242;6.974;2022-08-19T10:54:15;25.70;99.90
52731;DHT22;38624;53.242;6.974;2022-08-19T10:56:41;25.90;99.90
52731;DHT22;38624;53.242;6.974;2022-08-19T10:59:26;25.80;99.90
52731;DHT22;38624;53.242;6.974;2022-08-19T11:02:00;25.60;99.90
52731;DHT22;38624;53.242;6.974;2022-08-19T11:04:26;25.50;99.90
52731;DHT22;38624;53.242;6.974;2022-08-19T11:06:52;25.60;99.90
52731;DHT22;38624;53.242;6.974;2022-08-19T11:09:21;26.00;99.90
52731;DHT22;38624;53.242;6.974;2022-08-19T11:11:50;25.80;99.90
52731;DHT22;38624;53.242;6.974;2022-08-19T11:14:17;26.00;99.90
52731;DHT22;38624;53.242;6.974;2022-08-19T11:16:45;26.10;99.90
52731;DHT22;38624;53.242;6.974;2022-08-19T11:19:11;26.00;99.90
52731;DHT22;38624;53.242;6.974;2022-08-19T11:21:41;26.40;99.90
52731;DHT22;38624;53.242;6.974;2022-08-19T11:24:14;26.90;99.90
52731;DHT22;38624;53.242;6.974;2022-08-19T11:26:42;27.50;99.90
52731;DHT22;38624;53.242;6.974;2022-08-19T11:29:10;28.00;99.90
52731;DHT22;38624;53.242;6.974;2022-08-19T11:31:44;28.50;99.90
52731;DHT22;38624;53.242;6.974;2022-08-19T11:34:15;28.90;96.20
52731;DHT22;38624;53.242;6.974;2022-08-19T11:36:43;29.30;96.00
52731;DHT22;38624;53.242;6.974;2022-08-19T11:39:11;29.70;92.60
52731;DHT22;38624;53.242;6.974;2022-08-19T11:41:38;30.00;90.90
52731;DHT22;38624;53.242;6.974;2022-08-19T11:44:04;30.50;90.20
52731;DHT22;38624;53.242;6.974;2022-08-19T11:46:34;30.50;88.10
52731;DHT22;38624;53.242;6.974;2022-08-19T11:49:02;30.30;90.40
52731;DHT22;38624;53.242;6.974;2022-08-19T11:51:29;30.60;87.80
52731;DHT22;38624;53.242;6.974;2022-08-19T11:53:56;31.00;85.60
52731;DHT22;38624;53.242;6.974;2022-08-19T11:56:23;31.10;86.40
52731;DHT22;38624;53.242;6.974;2022-08-19T11:58:50;31.00;85.70
52731;DHT22;38624;53.242;6.974;2022-08-19T12:01:18;31.30;88.50
52731;DHT22;38624;53.242;6.974;2022-08-19T12:03:46;31.70;86.10
52731;DHT22;38624;53.242;6.974;2022-08-19T12:06:14;31.30;83.20
52731;DHT22;38624;53.242;6.974;2022-08-19T12:08:41;30.90;83.30
52731;DHT22;38624;53.242;6.974;2022-08-19T12:11:09;30.40;83.60
52731;DHT22;38624;53.242;6.974;2022-08-19T12:13:35;29.90;84.00
52731;DHT22;38624;53.242;6.974;2022-08-19T12:16:10;29.60;83.70
52731;DHT22;38624;53.242;6.974;2022-08-19T12:18:40;29.20;87.30
52731;DHT22;38624;53.242;6.974;2022-08-19T12:21:16;28.80;90.00
52731;DHT22;38624;53.242;6.974;2022-08-19T12:23:43;28.50;90.30
52731;DHT22;38624;53.242;6.974;2022-08-19T12:26:11;28.50;89.30
52731;DHT22;38624;53.242;6.974;2022-08-19T12:28:37;28.50;87.40
52731;DHT22;38624;53.242;6.974;2022-08-19T12:31:02;28.20;91.70
52731;DHT22;38624;53.242;6.974;2022-08-19T12:33:28;28.00;91.50
52731;DHT22;38624;53.242;6.974;2022-08-19T12:35:55;28.00;91.40
52731;DHT22;38624;53.242;6.974;2022-08-19T12:38:25;27.90;92.00
52731;DHT22;38624;53.242;6.974;2022-08-19T12:40:51;27.90;91.40
52731;DHT22;38624;53.242;6.974;2022-08-19T12:43:18;27.80;92.10
52731;DHT22;38624;53.242;6.974;2022-08-19T12:45:45;27.70;93.40
52731;DHT22;38624;53.242;6.974;2022-08-19T12:48:11;27.80;92.30
52731;DHT22;38624;53.242;6.974;2022-08-19T12:50:41;27.80;94.00
52731;DHT22;38624;53.242;6.974;2022-08-19T12:53:07;28.30;94.10
52731;DHT22;38624;53.242;6.974;2022-08-19T12:55:33;28.80;93.30
52731;DHT22;38624;53.242;6.974;2022-08-19T12:57:59;28.60;94.70
52731;DHT22;38624;53.242;6.974;2022-08-19T13:00:27;28.50;94.30
52731;DHT22;38624;53.242;6.974;2022-08-19T13:02:53;28.90;92.10
52731;DHT22;38624;53.242;6.974;2022-08-19T13:05:22;28.70;91.90
52731;DHT22;38624;53.242;6.974;2022-08-19T13:07:50;29.00;92.30
52731;DHT22;38624;53.242;6.974;2022-08-19T13:10:18;29.50;91.60
52731;DHT22;38624;53.242;6.974;2022-08-19T13:12:46;29.10;92.00
52731;DHT22;38624;53.242;6.974;2022-08-19T13:15:14;28.80;93.50
52731;DHT22;38624;53.242;6.974;2022-08-19T13:17:40;28.70;93.50
52731;DHT22;38624;53.242;6.974;2022-08-19T13:20:09;28.60;94.30
52731;DHT22;38624;53.242;6.974;2022-08-19T13:22:36;28.40;94.30
52731;DHT22;38624;53.242;6.974;2022-08-19T13:25:04;28.40;96.30
52731;DHT22;38624;53.242;6.974;2022-08-19T13:27:31;28.30;96.40
52731;DHT22;38624;53.242;6.974;2022-08-19T13:29:56;28.20;97.10
52731;DHT22;38624;53.242;6.974;2022-08-19T13:32:41;28.20;97.70
52731;DHT22;38624;53.242;6.974;2022-08-19T13:35:25;28.20;97.40
52731;DHT22;38624;53.242;6.974;2022-08-19T13:37:51;28.10;96.50
52731;DHT22;38624;53.242;6.974;2022-08-19T13:40:22;28.10;94.40
52731;DHT22;38624;53.242;6.974;2022-08-19T13:42:52;28.10;95.70
52731;DHT22;38624;53.242;6.974;2022-08-19T13:45:21;28.20;95.70
52731;DHT22;38624;53.242;6.974;2022-08-19T13:47:51;28.30;94.40
52731;DHT22;38624;53.242;6.974;2022-08-19T13:50:20;28.40;93.30
52731;DHT22;38624;53.242;6.974;2022-08-19T13:52:46;28.50;92.90
52731;DHT22;38624;53.242;6.974;2022-08-19T13:55:14;28.50;93.40
52731;DHT22;38624;53.242;6.974;2022-08-19T13:57:40;28.60;93.00
52731;DHT22;38624;53.242;6.974;2022-08-19T14:00:11;28.80;93.30
52731;DHT22;38624;53.242;6.974;2022-08-19T14:02:37;29.10;92.90
52731;DHT22;38624;53.242;6.974;2022-08-19T14:05:05;29.50;91.40
52731;DHT22;38624;53.242;6.974;2022-08-19T14:07:32;30.40;90.40
52731;DHT22;38624;53.242;6.974;2022-08-19T14:09:58;30.60;88.10
52731;DHT22;38624;53.242;6.974;2022-08-19T14:12:23;30.20;91.10
52731;DHT22;38624;53.242;6.974;2022-08-19T14:14:49;29.70;93.10
52731;DHT22;38624;53.242;6.974;2022-08-19T14:17:15;29.20;94.60
52731;DHT22;38624;53.242;6.974;2022-08-19T14:19:42;28.80;95.80
52731;DHT22;38624;53.242;6.974;2022-08-19T14:22:07;29.00;96.20
52731;DHT22;38624;53.242;6.974;2022-08-19T14:24:33;28.80;96.70
52731;DHT22;38624;53.242;6.974;2022-08-19T14:26:59;28.40;97.60
52731;DHT22;38624;53.242;6.974;2022-08-19T14:29:25;29.20;97.60
52731;DHT22;38624;53.242;6.974;2022-08-19T14:31:53;29.90;96.30
52731;DHT22;38624;53.242;6.974;2022-08-19T14:34:18;29.20;96.30
52731;DHT22;38624;53.242;6.974;2022-08-19T14:36:44;28.70;97.50
52731;DHT22;38624;53.242;6.974;2022-08-19T14:39:10;28.10;99.60
52731;DHT22;38624;53.242;6.974;2022-08-19T14:41:40;27.70;99.90
52731;DHT22;38624;53.242;6.974;2022-08-19T14:44:07;27.30;99.90
52731;DHT22;38624;53.242;6.974;2022-08-19T14:46:35;26.90;99.90
52731;DHT22;38624;53.242;6.974;2022-08-19T14:49:01;26.70;99.90
52731;DHT22;38624;53.242;6.974;2022-08-19T14:51:27;26.40;99.90
52731;DHT22;38624;53.242;6.974;2022-08-19T14:53:53;26.20;99.90
52731;DHT22;38624;53.242;6.974;2022-08-19T14:56:21;26.10;99.90
52731;DHT22;38624;53.242;6.974;2022-08-19T14:58:47;26.00;99.90
52731;DHT22;38624;53.242;6.974;2022-08-19T15:01:17;25.90;99.90
52731;DHT22;38624;53.242;6.974;2022-08-19T15:03:45;25.90;99.90
52731;DHT22;38624;53.242;6.974;2022-08-19T15:06:11;26.00;99.90
52731;DHT22;38624;53.242;6.974;2022-08-19T15:08:38;26.10;99.90
52731;DHT22;38624;53.242;6.974;2022-08-19T15:11:18;26.20;99.90
52731;DHT22;38624;53.242;6.974;2022-08-19T15:13:47;26.30;99.90
52731;DHT22;38624;53.242;6.974;2022-08-19T15:16:14;26.40;99.90
52731;DHT22;38624;53.242;6.974;2022-08-19T15:18:43;26.80;99.90
52731;DHT22;38624;53.242;6.974;2022-08-19T15:21:13;27.30;99.90
52731;DHT22;38624;53.242;6.974;2022-08-19T15:23:44;27.40;99.90
52731;DHT22;38624;53.242;6.974;2022-08-19T15:26:11;27.20;99.90
52731;DHT22;38624;53.242;6.974;2022-08-19T15:28:38;27.00;99.90
52731;DHT22;38624;53.242;6.974;2022-08-19T15:31:04;26.80;99.90
52731;DHT22;38624;53.242;6.974;2022-08-19T15:33:35;26.60;99.90
52731;DHT22;38624;53.242;6.974;2022-08-19T15:36:06;26.30;99.90
52731;DHT22;38624;53.242;6.974;2022-08-19T15:38:32;26.00;99.90
52731;DHT22;38624;53.242;6.974;2022-08-19T15:41:03;25.80;99.90
52731;DHT22;38624;53.242;6.974;2022-08-19T15:43:49;25.60;99.90
52731;DHT22;38624;53.242;6.974;2022-08-19T15:46:20;25.30;99.90
52731;DHT22;38624;53.242;6.974;2022-08-19T15:48:50;25.20;99.90